Time;durP1;ratioP1;P1;durP2;ratioP2;P2;SDS_P1;SDS_P2;PMS_P1;PMS_P2;Temp;Humidity;BMP_temperature;BMP_pressure;BME280_temperature;BME280_humidity;BME280_pressure;Samples;Min_cycle;Max_cycle;Signal;HPM_P1;HPM_P2
2024/03/09 00:00:31;;;;;;;50.90;23.63;;;1.30;74.10;;;;;;5054595;28;20021;-48
2024/03/09 00:02:59;;;;;;;49.83;23.75;;;1.30;75.50;;;;;;5056361;28;20035;-50
2024/03/09 00:05:26;;;;;;;47.67;23.35;;;1.30;75.00;;;;;;5055214;28;20608;-50
2024/03/09 00:07:57;;;;;;;52.45;24.33;;;1.20;75.00;;;;;;5058876;28;20147;-52
2024/03/09 00:10:25;;;;;;;55.88;25.52;;;1.10;75.30;;;;;;5055452;28;20052;-52
2024/03/09 00:12:52;;;;;;;46.25;21.80;;;1.20;75.20;;;;;;5058607;28;20040;-50
2024/03/09 00:15:19;;;;;;;45.88;23.42;;;1.10;76.40;;;;;;5057829;28;20111;-48
2024/03/09 00:17:47;;;;;;;51.40;24.88;;;1.10;76.80;;;;;;5057320;28;20028;-50
2024/03/09 00:20:19;;;;;;;43.65;21.65;;;1.00;76.80;;;;;;5054139;28;20823;-50
2024/03/09 00:22:45;;;;;;;47.78;21.85;;;1.00;77.80;;;;;;5056579;28;20081;-52
2024/03/09 00:25:11;;;;;;;47.40;23.90;;;1.00;77.60;;;;;;5057060;28;20676;-49
2024/03/09 00:27:38;;;;;;;44.17;23.48;;;1.00;78.10;;;;;;5057556;28;20041;-50
2024/03/09 00:30:13;;;;;;;43.53;21.75;;;1.00;77.90;;;;;;5057001;28;20103;-55
2024/03/09 00:32:39;;;;;;;45.75;21.98;;;0.90;78.70;;;;;;5057075;28;20047;-53
2024/03/09 00:35:06;;;;;;;51.13;23.83;;;0.90;78.60;;;;;;5056964;28;20029;-50
2024/03/09 00:37:32;;;;;;;58.05;26.77;;;0.80;78.00;;;;;;5055331;28;20036;-52
2024/03/09 00:39:57;;;;;;;42.60;22.10;;;0.80;78.40;;;;;;5051441;28;20028;-46
2024/03/09 00:42:25;;;;;;;49.38;24.13;;;0.80;79.40;;;;;;5056783;28;20037;-52
2024/03/09 00:44:51;;;;;;;48.70;23.27;;;0.80;79.70;;;;;;5056782;28;20021;-48
2024/03/09 00:47:17;;;;;;;48.63;23.02;;;0.80;80.40;;;;;;5057046;28;20052;-49
2024/03/09 00:49:43;;;;;;;48.45;22.55;;;0.80;80.80;;;;;;5058192;28;20614;-50
2024/03/09 00:52:10;;;;;;;46.30;22.73;;;0.70;81.40;;;;;;5056863;28;20039;-50
2024/03/09 00:54:36;;;;;;;40.50;20.88;;;0.70;82.20;;;;;;5056747;28;20489;-49
2024/03/09 00:57:03;;;;;;;48.47;22.83;;;0.70;82.60;;;;;;5058965;28;20046;-51
2024/03/09 00:59:30;;;;;;;56.75;26.70;;;0.60;81.30;;;;;;5054837;28;20094;-49
2024/03/09 01:01:56;;;;;;;52.53;22.98;;;0.60;81.80;;;;;;5051634;28;20039;-50
2024/03/09 01:04:25;;;;;;;49.33;24.52;;;0.60;82.90;;;;;;5053111;28;20410;-49
2024/03/09 01:06:51;;;;;;;63.03;26.73;;;0.60;82.70;;;;;;5052819;28;20041;-46
2024/03/09 01:09:16;;;;;;;49.17;24.42;;;0.60;82.90;;;;;;5056427;28;20584;-48
2024/03/09 01:11:41;;;;;;;44.63;21.27;;;0.50;83.60;;;;;;5056405;28;20048;-51
2024/03/09 01:14:07;;;;;;;54.13;25.67;;;0.50;84.00;;;;;;5054513;28;20033;-48
2024/03/09 01:16:33;;;;;;;47.40;22.27;;;0.50;85.00;;;;;;5052184;28;20056;-52
2024/03/09 01:18:58;;;;;;;52.33;24.17;;;0.40;85.20;;;;;;5056354;28;20677;-46
2024/03/09 01:21:24;;;;;;;53.40;24.98;;;0.40;85.00;;;;;;5054738;28;20073;-50
2024/03/09 01:23:50;;;;;;;53.20;23.35;;;0.40;85.90;;;;;;5056370;28;20036;-51
2024/03/09 01:26:15;;;;;;;54.25;22.40;;;0.40;86.40;;;;;;5058141;28;20040;-49
2024/03/09 01:28:41;;;;;;;53.97;25.35;;;0.40;86.60;;;;;;5058475;28;20032;-50
2024/03/09 01:31:10;;;;;;;52.97;23.65;;;0.40;87.00;;;;;;5054038;28;20008;-52
2024/03/09 01:33:36;;;;;;;51.17;24.55;;;0.40;87.00;;;;;;5051459;28;20032;-49
2024/03/09 01:36:02;;;;;;;53.38;24.27;;;0.30;87.00;;;;;;5056178;28;20025;-49
2024/03/09 01:38:28;;;;;;;56.63;26.33;;;0.30;87.80;;;;;;5053347;28;20483;-44
2024/03/09 01:40:53;;;;;;;48.10;22.85;;;0.30;88.10;;;;;;5053445;28;20077;-52
2024/03/09 01:43:20;;;;;;;45.05;20.75;;;0.30;89.10;;;;;;5056301;28;20558;-50
2024/03/09 01:45:46;;;;;;;49.67;23.77;;;0.20;90.10;;;;;;5056487;28;20024;-46
2024/03/09 01:48:13;;;;;;;46.05;21.10;;;0.20;89.30;;;;;;5054276;28;20056;-51
2024/03/09 01:50:39;;;;;;;53.40;23.63;;;0.20;89.40;;;;;;5053148;28;20086;-51
2024/03/09 01:53:07;;;;;;;52.65;24.38;;;0.20;89.50;;;;;;5055777;28;20033;-50
2024/03/09 01:55:33;;;;;;;54.55;24.92;;;0.20;89.90;;;;;;5052248;28;20032;-53
2024/03/09 01:57:59;;;;;;;49.05;24.17;;;0.20;90.30;;;;;;5049653;28;20036;-48
2024/03/09 02:00:25;;;;;;;59.70;27.65;;;0.20;90.30;;;;;;5051464;28;20391;-48
2024/03/09 02:02:52;;;;;;;54.58;26.25;;;0.20;90.10;;;;;;5055371;28;20036;-45
2024/03/09 02:05:17;;;;;;;58.33;26.65;;;0.20;90.80;;;;;;5057750;28;20078;-47
2024/03/09 02:07:45;;;;;;;58.72;26.88;;;0.10;90.60;;;;;;5055834;28;20115;-45
2024/03/09 02:10:11;;;;;;;64.18;30.58;;;0.20;91.40;;;;;;5055735;28;20052;-47
2024/03/09 02:12:37;;;;;;;62.42;28.25;;;0.20;91.60;;;;;;5058815;28;20115;-45
2024/03/09 02:15:05;;;;;;;64.50;29.08;;;0.20;92.20;;;;;;5059379;28;20095;-45
2024/03/09 02:17:33;;;;;;;64.00;28.25;;;0.20;92.50;;;;;;5049638;28;20108;-50
2024/03/09 02:19:59;;;;;;;55.85;26.48;;;0.20;92.20;;;;;;5061559;28;20066;-47
2024/03/09 02:22:25;;;;;;;56.88;26.80;;;0.20;92.20;;;;;;5063843;28;20024;-46
2024/03/09 02:24:55;;;;;;;58.58;28.45;;;0.10;92.10;;;;;;5061656;28;20316;-47
2024/03/09 02:27:21;;;;;;;59.72;25.65;;;0.10;92.10;;;;;;5060001;28;20029;-46
2024/03/09 02:29:46;;;;;;;61.75;27.73;;;0.10;92.80;;;;;;5061843;28;20028;-48
2024/03/09 02:32:12;;;;;;;62.50;28.30;;;0.10;93.20;;;;;;5061609;28;20534;-52
2024/03/09 02:34:37;;;;;;;66.30;29.30;;;0.10;93.70;;;;;;5061706;28;20036;-46
2024/03/09 02:37:03;;;;;;;74.35;30.77;;;0.10;94.10;;;;;;5061763;28;20033;-46
2024/03/09 02:39:30;;;;;;;62.08;27.90;;;0.10;93.90;;;;;;5060462;28;20052;-45
2024/03/09 02:41:56;;;;;;;60.72;29.40;;;0.10;94.80;;;;;;5059576;28;20028;-46
2024/03/09 02:44:22;;;;;;;68.90;32.88;;;0.10;95.70;;;;;;5061654;28;20432;-49
2024/03/09 02:46:47;;;;;;;65.85;29.77;;;0.10;94.60;;;;;;5061477;28;20029;-47
2024/03/09 02:49:13;;;;;;;64.50;28.48;;;0.10;95.50;;;;;;5061275;28;20048;-53
2024/03/09 02:51:38;;;;;;;69.45;32.05;;;0.10;95.40;;;;;;5061174;28;20510;-47
2024/03/09 02:54:04;;;;;;;71.22;31.45;;;0.00;96.00;;;;;;5063244;28;20024;-48
2024/03/09 02:56:30;;;;;;;57.53;25.83;;;0.00;96.00;;;;;;5061286;28;20032;-45
2024/03/09 02:58:56;;;;;;;69.35;28.45;;;0.00;95.70;;;;;;5061242;28;23071;-50
2024/03/09 03:01:22;;;;;;;61.28;26.85;;;0.00;95.30;;;;;;5061080;28;20100;-47
2024/03/09 03:03:58;;;;;;;66.43;28.10;;;-0.10;95.70;;;;;;5061499;28;20031;-47
2024/03/09 03:06:24;;;;;;;69.40;30.95;;;-0.10;96.20;;;;;;5060502;28;20024;-52
2024/03/09 03:08:57;;;;;;;68.03;30.95;;;-0.10;96.10;;;;;;5060986;28;20082;-48
2024/03/09 03:11:23;;;;;;;63.78;29.00;;;-0.20;97.00;;;;;;5056941;28;20558;-47
2024/03/09 03:13:51;;;;;;;72.53;32.17;;;-0.20;97.30;;;;;;5061160;28;20063;-47
2024/03/09 03:16:29;;;;;;;69.75;31.63;;;-0.20;97.40;;;;;;5061031;28;20700;-49
2024/03/09 03:18:56;;;;;;;60.58;28.05;;;-0.20;97.80;;;;;;5061203;28;20390;-45
2024/03/09 03:21:21;;;;;;;78.25;33.17;;;-0.20;98.40;;;;;;5060643;28;20397;-50
2024/03/09 03:23:47;;;;;;;80.63;33.65;;;-0.30;97.50;;;;;;5059813;28;20025;-47
2024/03/09 03:26:16;;;;;;;68.13;30.70;;;-0.30;97.30;;;;;;5061012;28;20538;-48
2024/03/09 03:28:49;;;;;;;73.45;32.53;;;-0.40;97.70;;;;;;5062781;28;20078;-47
2024/03/09 03:31:18;;;;;;;76.40;33.45;;;-0.20;99.00;;;;;;5059160;28;20033;-47
2024/03/09 03:33:45;;;;;;;70.38;31.85;;;-0.30;99.10;;;;;;5062540;28;20071;-49
2024/03/09 03:36:18;;;;;;;76.85;32.10;;;-0.30;99.40;;;;;;5058537;28;20036;-48
2024/03/09 03:38:44;;;;;;;69.30;30.77;;;-0.30;99.90;;;;;;5051612;28;20028;-47
2024/03/09 03:41:10;;;;;;;82.03;34.97;;;-0.30;99.90;;;;;;5057327;28;20462;-47
2024/03/09 03:43:37;;;;;;;72.32;31.10;;;-0.30;99.90;;;;;;5060195;28;20037;-48
2024/03/09 03:46:04;;;;;;;74.70;34.72;;;-0.40;99.90;;;;;;5054607;28;20082;-46
2024/03/09 03:48:30;;;;;;;78.60;33.25;;;-0.40;99.90;;;;;;5058382;28;20120;-48
2024/03/09 03:50:56;;;;;;;81.68;35.38;;;-0.40;99.90;;;;;;5052397;28;20100;-47
2024/03/09 03:53:22;;;;;;;74.03;30.60;;;-0.40;99.90;;;;;;5056065;28;20036;-49
2024/03/09 03:55:48;;;;;;;78.93;32.95;;;-0.40;99.90;;;;;;5058367;28;20044;-45
2024/03/09 03:58:17;;;;;;;80.30;33.80;;;-0.50;99.90;;;;;;5053018;28;20112;-45
2024/03/09 04:00:49;;;;;;;89.30;36.75;;;-0.50;99.90;;;;;;5060019;28;20021;-45
2024/03/09 04:03:16;;;;;;;77.63;32.05;;;-0.50;99.90;;;;;;5051687;28;20461;-45
2024/03/09 04:05:45;;;;;;;82.32;35.10;;;-0.50;99.90;;;;;;5051052;28;20394;-48
2024/03/09 04:08:11;;;;;;;75.78;34.60;;;-0.50;99.90;;;;;;5052783;28;20025;-48
2024/03/09 04:10:42;;;;;;;81.20;35.00;;;-0.50;99.90;;;;;;5058270;28;20480;-47
2024/03/09 04:13:09;;;;;;;75.88;34.67;;;-0.50;99.90;;;;;;5058113;28;20027;-48
2024/03/09 04:15:34;;;;;;;86.10;35.13;;;-0.60;99.90;;;;;;5051842;28;20052;-50
2024/03/09 04:18:02;;;;;;;80.53;35.17;;;-0.50;99.90;;;;;;5058963;28;20052;-49
2024/03/09 04:20:33;;;;;;;90.72;39.42;;;-0.60;99.90;;;;;;5056679;28;20043;-47
2024/03/09 04:23:02;;;;;;;80.47;35.90;;;-0.50;99.90;;;;;;5057059;28;20078;-46
2024/03/09 04:25:28;;;;;;;70.82;32.05;;;-0.60;99.90;;;;;;5057893;28;20028;-48
2024/03/09 04:27:55;;;;;;;89.35;37.22;;;-0.60;99.90;;;;;;5059449;28;20540;-45
2024/03/09 04:30:23;;;;;;;87.45;37.97;;;-0.60;99.90;;;;;;5055454;28;20679;-46
2024/03/09 04:32:49;;;;;;;79.60;35.15;;;-0.60;99.90;;;;;;5059191;28;20551;-46
2024/03/09 04:35:14;;;;;;;83.55;35.95;;;-0.60;99.90;;;;;;5059404;28;20108;-47
2024/03/09 04:37:41;;;;;;;75.05;34.45;;;-0.70;99.90;;;;;;5058042;28;20036;-49
2024/03/09 04:40:14;;;;;;;81.25;35.08;;;-0.70;99.90;;;;;;5053808;28;20040;-45
2024/03/09 04:42:46;;;;;;;72.90;32.75;;;-0.70;99.90;;;;;;5059138;28;20040;-49
2024/03/09 04:45:12;;;;;;;76.90;33.92;;;-0.70;99.90;;;;;;5059133;28;20035;-49
2024/03/09 04:47:38;;;;;;;76.43;34.00;;;-0.70;99.90;;;;;;5059053;28;20111;-49
2024/03/09 04:50:04;;;;;;;89.25;40.65;;;-0.70;99.90;;;;;;5057111;28;20027;-47
2024/03/09 04:52:30;;;;;;;83.88;35.70;;;-0.70;99.90;;;;;;5057363;28;20024;-45
2024/03/09 04:54:55;;;;;;;76.05;33.45;;;-0.70;99.90;;;;;;5059308;28;20044;-48
2024/03/09 04:57:24;;;;;;;80.15;33.15;;;-0.70;99.90;;;;;;5059001;28;20070;-45
2024/03/09 04:59:50;;;;;;;92.15;36.10;;;-0.80;99.90;;;;;;5058848;28;20107;-45
2024/03/09 05:02:17;;;;;;;84.00;34.90;;;-0.70;99.90;;;;;;5059129;28;20032;-51
2024/03/09 05:04:43;;;;;;;83.20;35.92;;;-0.80;99.90;;;;;;5059389;28;20031;-47
2024/03/09 05:07:09;;;;;;;91.38;39.33;;;-0.70;99.90;;;;;;5061089;28;20028;-47
2024/03/09 05:09:37;;;;;;;71.00;33.85;;;-0.80;99.90;;;;;;5054635;28;20054;-47
2024/03/09 05:12:03;;;;;;;97.22;40.78;;;-0.80;99.90;;;;;;5056693;28;20048;-49
2024/03/09 05:14:30;;;;;;;94.03;40.35;;;-0.80;99.90;;;;;;5056472;28;20039;-48
2024/03/09 05:16:56;;;;;;;95.18;39.60;;;-0.80;99.90;;;;;;5058435;28;20086;-50
2024/03/09 05:19:22;;;;;;;88.65;38.58;;;-0.80;99.90;;;;;;5058238;28;20047;-47
2024/03/09 05:21:48;;;;;;;95.47;40.35;;;-0.80;99.90;;;;;;5057944;28;20496;-47
2024/03/09 05:24:15;;;;;;;101.47;41.92;;;-0.80;99.90;;;;;;5058304;28;20084;-50
2024/03/09 05:26:42;;;;;;;94.60;39.90;;;-0.70;99.90;;;;;;5059111;28;20673;-45
2024/03/09 05:29:11;;;;;;;86.45;37.75;;;-0.80;99.90;;;;;;5060833;28;20028;-44
2024/03/09 05:31:36;;;;;;;95.45;38.78;;;-0.70;99.90;;;;;;5056545;28;20036;-52
2024/03/09 05:34:03;;;;;;;99.32;45.53;;;-0.70;99.90;;;;;;5058887;28;20086;-46
2024/03/09 05:36:29;;;;;;;99.82;41.80;;;-0.70;99.90;;;;;;5059205;28;20426;-46
2024/03/09 05:38:55;;;;;;;92.57;39.40;;;-0.70;99.90;;;;;;5055524;28;20031;-48
2024/03/09 05:41:20;;;;;;;92.95;38.80;;;-0.70;99.90;;;;;;5058946;28;20029;-49
2024/03/09 05:43:47;;;;;;;94.93;40.35;;;-0.70;99.90;;;;;;5058846;28;20017;-43
2024/03/09 05:46:19;;;;;;;86.65;36.63;;;-0.60;99.90;;;;;;5062381;28;20111;-46
2024/03/09 05:48:45;;;;;;;94.78;40.83;;;-0.60;99.90;;;;;;5064852;28;20056;-46
2024/03/09 05:51:11;;;;;;;91.10;38.83;;;-0.50;99.90;;;;;;5058937;28;20024;-46
2024/03/09 05:53:38;;;;;;;87.07;37.42;;;-0.50;99.90;;;;;;5062468;28;20046;-49
2024/03/09 05:56:04;;;;;;;92.53;40.28;;;-0.50;99.90;;;;;;5062618;28;20028;-47
2024/03/09 05:58:31;;;;;;;90.30;41.05;;;-0.40;99.90;;;;;;5062434;28;20601;-47
2024/03/09 06:00:57;;;;;;;97.97;41.55;;;-0.40;99.90;;;;;;5062486;28;20130;-48
2024/03/09 06:03:22;;;;;;;107.65;45.50;;;-0.30;99.90;;;;;;5062643;28;20178;-47
2024/03/09 06:05:48;;;;;;;109.10;44.42;;;-0.30;99.90;;;;;;5062290;28;20050;-47
2024/03/09 06:08:13;;;;;;;96.10;40.20;;;-0.20;99.90;;;;;;5062406;28;20043;-49
2024/03/09 06:10:39;;;;;;;85.95;39.88;;;-0.10;99.90;;;;;;5061039;28;20041;-45
2024/03/09 06:13:05;;;;;;;89.47;40.75;;;0.00;99.90;;;;;;5062442;28;20494;-48
2024/03/09 06:15:31;;;;;;;90.07;37.85;;;0.20;99.90;;;;;;5062044;28;20016;-47
2024/03/09 06:17:58;;;;;;;84.40;36.42;;;0.30;99.90;;;;;;5062555;28;20024;-45
2024/03/09 06:20:27;;;;;;;86.50;40.92;;;0.60;99.90;;;;;;5060473;28;20028;-48
2024/03/09 06:22:54;;;;;;;90.50;39.47;;;1.00;99.90;;;;;;5064102;28;20024;-50
2024/03/09 06:25:25;;;;;;;99.82;43.38;;;1.40;99.90;;;;;;5062096;28;20031;-46
2024/03/09 06:27:55;;;;;;;84.32;38.35;;;1.70;99.90;;;;;;5064034;28;20032;-45
2024/03/09 06:30:23;;;;;;;83.90;38.47;;;2.00;99.90;;;;;;5063473;28;20015;-47
2024/03/09 06:32:49;;;;;;;84.50;37.95;;;2.30;99.90;;;;;;5061821;28;20051;-50
2024/03/09 06:35:25;;;;;;;85.70;41.30;;;2.50;99.90;;;;;;5060340;28;20016;-46
2024/03/09 06:37:59;;;;;;;77.80;36.63;;;2.70;99.30;;;;;;5062289;28;21133;-47
2024/03/09 06:40:39;;;;;;;85.47;37.50;;;3.00;98.30;;;;;;5058511;28;20031;-47
2024/03/09 06:43:09;;;;;;;80.63;37.08;;;3.30;96.50;;;;;;5053835;28;20033;-47
2024/03/09 06:45:37;;;;;;;76.18;36.42;;;3.50;94.70;;;;;;5060568;28;20190;-48
2024/03/09 06:48:06;;;;;;;72.53;35.88;;;3.70;93.70;;;;;;5061567;28;20778;-45
2024/03/09 06:50:33;;;;;;;67.78;35.30;;;4.00;93.30;;;;;;5061924;28;20501;-47
2024/03/09 06:52:58;;;;;;;71.05;35.13;;;4.20;91.30;;;;;;5062097;28;20494;-49
2024/03/09 06:55:29;;;;;;;76.28;37.47;;;4.40;90.80;;;;;;5061419;28;20035;-47
2024/03/09 06:57:56;;;;;;;70.10;36.88;;;4.50;90.10;;;;;;5061532;28;20020;-47
2024/03/09 07:00:22;;;;;;;76.43;37.42;;;4.70;89.00;;;;;;5061282;28;20559;-52
2024/03/09 07:02:49;;;;;;;64.97;32.42;;;4.90;87.30;;;;;;5061610;28;20025;-50
2024/03/09 07:05:15;;;;;;;67.28;35.25;;;5.20;87.40;;;;;;5061035;28;20020;-50
2024/03/09 07:07:41;;;;;;;62.92;32.65;;;5.30;85.00;;;;;;5060262;28;20029;-48
2024/03/09 07:10:09;;;;;;;69.63;34.85;;;5.50;83.70;;;;;;5060987;28;20094;-52
2024/03/09 07:12:41;;;;;;;70.78;35.80;;;5.80;84.20;;;;;;5060754;28;20041;-50
2024/03/09 07:15:14;;;;;;;70.45;34.92;;;5.90;80.30;;;;;;5058562;28;20032;-50
2024/03/09 07:17:40;;;;;;;67.38;35.20;;;6.00;79.10;;;;;;5059062;28;20520;-50
2024/03/09 07:20:12;;;;;;;62.67;34.22;;;6.20;78.90;;;;;;5060630;28;20028;-49
2024/03/09 07:22:41;;;;;;;66.22;35.08;;;6.30;77.50;;;;;;5057415;28;20024;-47
2024/03/09 07:25:13;;;;;;;70.93;37.38;;;6.50;77.60;;;;;;5054480;28;20394;-47
2024/03/09 07:27:40;;;;;;;69.00;34.88;;;6.60;74.70;;;;;;5059200;28;20074;-52
2024/03/09 07:30:09;;;;;;;67.97;34.60;;;6.70;73.80;;;;;;5059240;28;20028;-49
2024/03/09 07:32:35;;;;;;;66.13;34.47;;;6.80;73.70;;;;;;5060339;28;20036;-48
2024/03/09 07:35:14;;;;;;;62.10;33.88;;;6.90;73.50;;;;;;5060585;28;20133;-52
2024/03/09 07:37:42;;;;;;;62.30;32.80;;;7.10;73.40;;;;;;5060660;28;20498;-45
2024/03/09 07:40:13;;;;;;;65.45;33.67;;;7.20;72.00;;;;;;5053140;28;20020;-49
2024/03/09 07:42:38;;;;;;;63.92;36.38;;;7.50;73.30;;;;;;5060329;28;20013;-48
2024/03/09 07:45:13;;;;;;;61.58;33.90;;;7.80;70.40;;;;;;5060428;28;20020;-47
2024/03/09 07:47:39;;;;;;;61.95;34.35;;;7.90;67.80;;;;;;5059994;28;20401;-44
2024/03/09 07:50:20;;;;;;;65.55;35.53;;;8.00;68.30;;;;;;5060479;28;20060;-47
2024/03/09 07:52:52;;;;;;;59.53;33.83;;;8.00;67.20;;;;;;5053662;28;20049;-49
2024/03/09 07:55:24;;;;;;;70.88;35.28;;;8.10;66.20;;;;;;5058088;28;20071;-46
2024/03/09 07:58:00;;;;;;;66.32;35.47;;;8.10;65.90;;;;;;5054359;28;20700;-50
2024/03/09 08:00:33;;;;;;;;;;;8.20;65.00;;;;;;5056268;28;20024;-50
2024/03/09 08:03:00;;;;;;;61.80;32.20;;;8.20;63.30;;;;;;5055301;28;19978;-47
2024/03/09 08:05:28;;;;;;;68.85;37.08;;;8.30;64.60;;;;;;5060554;28;20044;-45
2024/03/09 08:07:54;;;;;;;69.20;36.33;;;8.30;62.60;;;;;;5057564;28;20040;-47
2024/03/09 08:10:23;;;;;;;60.95;34.25;;;8.20;62.80;;;;;;5055225;28;20041;-44
2024/03/09 08:12:49;;;;;;;74.13;35.75;;;8.30;62.70;;;;;;5059555;28;20063;-48
2024/03/09 08:15:16;;;;;;;56.28;31.95;;;8.40;63.10;;;;;;5058227;28;20215;-48
2024/03/09 08:17:48;;;;;;;65.57;36.17;;;8.60;64.00;;;;;;5059920;28;20270;-47
2024/03/09 08:20:14;;;;;;;59.88;33.67;;;8.80;62.80;;;;;;5059682;28;20023;-47
2024/03/09 08:22:40;;;;;;;61.15;35.42;;;8.70;59.70;;;;;;5059529;28;20043;-51
2024/03/09 08:25:16;;;;;;;56.30;31.55;;;8.80;60.30;;;;;;5055148;28;20028;-50
2024/03/09 08:27:44;;;;;;;62.45;32.70;;;8.80;60.70;;;;;;5057622;28;20033;-46
2024/03/09 08:30:15;;;;;;;64.10;36.25;;;8.90;62.00;;;;;;5053262;28;20028;-47
2024/03/09 08:32:44;;;;;;;63.13;36.83;;;9.10;60.30;;;;;;5059422;28;20365;-47
2024/03/09 08:35:11;;;;;;;62.67;33.88;;;9.20;59.70;;;;;;5053910;28;20444;-50
2024/03/09 08:37:41;;;;;;;57.50;31.88;;;9.30;59.10;;;;;;5056557;28;20089;-49
2024/03/09 08:40:08;;;;;;;55.80;32.33;;;9.30;59.50;;;;;;5053134;28;20021;-48
2024/03/09 08:42:33;;;;;;;51.72;30.10;;;9.40;58.80;;;;;;5056592;28;20405;-48
2024/03/09 08:45:00;;;;;;;61.25;36.03;;;9.40;60.50;;;;;;5051405;28;20029;-47
2024/03/09 08:47:25;;;;;;;63.53;35.97;;;9.50;57.90;;;;;;5054398;28;20032;-48
2024/03/09 08:49:51;;;;;;;50.85;31.23;;;9.50;58.50;;;;;;5054646;28;20035;-48
2024/03/09 08:52:16;;;;;;;62.17;34.85;;;9.50;58.20;;;;;;5053377;28;20038;-47
2024/03/09 08:54:43;;;;;;;61.03;34.45;;;9.50;56.90;;;;;;5052195;28;20490;-47
2024/03/09 08:57:11;;;;;;;58.90;34.60;;;9.60;58.00;;;;;;5054486;28;20263;-46
2024/03/09 08:59:44;;;;;;;57.35;33.58;;;9.60;57.70;;;;;;5054650;28;20116;-47
2024/03/09 09:02:10;;;;;;;59.20;34.95;;;9.70;57.80;;;;;;5053631;28;20028;-49
2024/03/09 09:04:36;;;;;;;54.33;32.80;;;9.90;56.20;;;;;;5050630;28;20043;-52
2024/03/09 09:07:02;;;;;;;45.25;27.63;;;10.00;56.10;;;;;;5054791;28;20032;-46
2024/03/09 09:09:28;;;;;;;54.28;31.35;;;10.30;57.30;;;;;;5051420;28;20034;-50
2024/03/09 09:11:54;;;;;;;59.40;34.25;;;10.30;56.10;;;;;;5058104;28;20045;-48
2024/03/09 09:14:20;;;;;;;57.50;34.55;;;10.40;55.20;;;;;;5054604;28;20112;-49
2024/03/09 09:16:48;;;;;;;57.38;34.70;;;10.30;53.00;;;;;;5054416;28;20103;-49
2024/03/09 09:19:14;;;;;;;58.97;33.17;;;10.30;54.00;;;;;;5050299;28;20052;-50
2024/03/09 09:21:40;;;;;;;55.05;32.30;;;10.40;53.90;;;;;;5056202;28;20048;-50
2024/03/09 09:24:06;;;;;;;54.50;32.88;;;10.40;53.00;;;;;;5057866;28;20327;-49
2024/03/09 09:26:32;;;;;;;54.38;31.08;;;10.30;52.70;;;;;;5053757;28;20447;-49
2024/03/09 09:28:59;;;;;;;54.15;33.22;;;10.30;53.00;;;;;;5054210;28;20031;-50
2024/03/09 09:31:25;;;;;;;54.95;33.50;;;10.40;52.70;;;;;;5053179;28;20055;-47
2024/03/09 09:33:51;;;;;;;59.08;31.75;;;10.40;52.00;;;;;;5051606;28;20042;-50
2024/03/09 09:36:18;;;;;;;54.03;32.28;;;10.40;53.10;;;;;;5054293;28;20089;-48
2024/03/09 09:38:45;;;;;;;54.78;32.20;;;10.40;52.40;;;;;;5050913;28;20016;-46
2024/03/09 09:41:12;;;;;;;57.88;33.10;;;10.50;51.60;;;;;;5058173;28;20021;-50
2024/03/09 09:43:38;;;;;;;49.50;31.35;;;10.30;51.60;;;;;;5058338;28;20031;-47
2024/03/09 09:46:04;;;;;;;63.25;37.22;;;10.30;52.40;;;;;;5058246;28;20493;-46
2024/03/09 09:48:32;;;;;;;52.35;32.13;;;10.40;51.70;;;;;;5058142;28;20071;-51
2024/03/09 09:50:58;;;;;;;49.75;30.98;;;10.20;51.60;;;;;;5058419;28;20024;-47
2024/03/09 09:53:24;;;;;;;52.25;31.20;;;10.10;52.50;;;;;;5058182;28;20102;-52
2024/03/09 09:55:50;;;;;;;52.83;33.33;;;10.20;52.70;;;;;;5060156;28;20029;-48
2024/03/09 09:58:15;;;;;;;56.72;34.00;;;10.30;52.80;;;;;;5049642;28;20027;-48
2024/03/09 10:00:41;;;;;;;56.00;32.45;;;10.40;51.20;;;;;;5057521;28;20020;-50
2024/03/09 10:03:07;;;;;;;53.13;32.90;;;10.30;51.10;;;;;;5054129;28;20401;-47
2024/03/09 10:05:33;;;;;;;50.88;30.17;;;10.20;51.60;;;;;;5053915;28;20206;-50
2024/03/09 10:08:06;;;;;;;56.05;33.38;;;10.20;52.70;;;;;;5054384;28;20032;-46
2024/03/09 10:10:35;;;;;;;52.55;31.60;;;10.30;51.70;;;;;;5052482;28;20123;-51
2024/03/09 10:13:15;;;;;;;51.28;29.77;;;10.20;51.40;;;;;;5054007;28;20017;-51
2024/03/09 10:15:43;;;;;;;50.08;30.70;;;10.20;51.70;;;;;;5049061;28;20081;-47
2024/03/09 10:18:09;;;;;;;55.40;30.83;;;10.20;52.30;;;;;;5058259;28;20033;-47
2024/03/09 10:20:36;;;;;;;50.10;28.13;;;10.30;52.50;;;;;;5052220;28;20028;-50
2024/03/09 10:23:04;;;;;;;58.55;33.67;;;10.30;52.40;;;;;;5055500;28;20033;-48
2024/03/09 10:25:35;;;;;;;51.40;30.13;;;10.40;51.40;;;;;;5049898;28;20017;-49
2024/03/09 10:28:01;;;;;;;58.30;33.67;;;10.10;50.50;;;;;;5057267;28;20021;-52
2024/03/09 10:30:27;;;;;;;54.38;32.45;;;9.90;51.30;;;;;;5050610;28;20059;-50
2024/03/09 10:32:58;;;;;;;57.30;32.63;;;9.80;51.60;;;;;;5054512;28;20056;-49
2024/03/09 10:35:24;;;;;;;55.67;31.13;;;9.80;52.20;;;;;;5055705;28;20032;-49
2024/03/09 10:37:51;;;;;;;48.17;28.17;;;9.80;52.20;;;;;;5060850;28;20024;-46
2024/03/09 10:40:20;;;;;;;49.60;28.23;;;10.00;52.50;;;;;;5049764;28;20029;-50
2024/03/09 10:42:49;;;;;;;44.15;27.42;;;10.00;52.30;;;;;;5059442;28;20113;-45
2024/03/09 10:45:17;;;;;;;54.03;30.52;;;10.00;52.40;;;;;;5059717;28;20020;-49
2024/03/09 10:47:53;;;;;;;51.35;29.05;;;10.00;52.40;;;;;;5057385;28;20402;-47
2024/03/09 10:50:27;;;;;;;56.38;32.80;;;9.90;52.60;;;;;;5057082;28;20043;-47
2024/03/09 10:53:01;;;;;;;58.13;32.15;;;9.80;52.70;;;;;;5055930;28;20121;-51
2024/03/09 10:55:39;;;;;;;54.72;31.63;;;9.60;53.50;;;;;;5061369;28;20529;-50
2024/03/09 10:58:05;;;;;;;53.00;30.40;;;9.60;53.60;;;;;;5059358;28;20020;-47
2024/03/09 11:00:32;;;;;;;58.85;29.95;;;9.60;54.00;;;;;;5057306;28;20041;-50
2024/03/09 11:03:03;;;;;;;56.55;30.40;;;9.50;54.30;;;;;;5061195;28;20024;-52
2024/03/09 11:05:30;;;;;;;61.80;33.65;;;9.50;54.40;;;;;;5061122;28;20031;-50
2024/03/09 11:07:56;;;;;;;58.90;32.22;;;9.60;55.00;;;;;;5060910;28;20941;-49
2024/03/09 11:10:23;;;;;;;53.10;29.98;;;9.60;54.60;;;;;;5060884;28;20044;-52
2024/03/09 11:12:52;;;;;;;48.00;27.50;;;9.60;54.80;;;;;;5060512;28;20056;-53
2024/03/09 11:15:21;;;;;;;53.53;29.95;;;9.70;54.90;;;;;;5060688;28;20027;-52
2024/03/09 11:17:46;;;;;;;49.72;27.63;;;9.70;55.00;;;;;;5061009;28;20031;-50
2024/03/09 11:20:15;;;;;;;53.42;28.88;;;9.70;54.60;;;;;;5056450;28;20024;-53
2024/03/09 11:22:45;;;;;;;43.80;25.42;;;9.80;54.50;;;;;;5062488;28;20074;-51
2024/03/09 11:25:12;;;;;;;44.90;23.67;;;9.90;54.20;;;;;;5059589;28;20077;-52
2024/03/09 11:27:39;;;;;;;45.20;24.20;;;10.00;54.00;;;;;;5058827;28;20359;-52
2024/03/09 11:30:08;;;;;;;41.67;24.88;;;10.10;53.70;;;;;;5060297;28;20024;-51
2024/03/09 11:32:36;;;;;;;44.50;24.00;;;10.30;53.50;;;;;;5060431;28;20036;-48
2024/03/09 11:35:26;;;;;;;33.35;20.50;;;10.50;52.40;;;;;;5060785;28;20036;-48
2024/03/09 11:37:52;;;;;;;34.67;19.60;;;10.80;51.70;;;;;;5056646;28;20075;-52
2024/03/09 11:40:20;;;;;;;33.10;19.65;;;11.10;50.00;;;;;;5057019;28;20052;-50
2024/03/09 11:42:46;;;;;;;28.90;17.23;;;11.20;48.50;;;;;;5060024;28;20044;-49
2024/03/09 11:45:18;;;;;;;27.73;17.88;;;11.20;47.50;;;;;;5059768;28;20025;-49
2024/03/09 11:47:44;;;;;;;29.92;17.55;;;11.20;47.10;;;;;;5059687;28;20115;-52
2024/03/09 11:50:10;;;;;;;31.05;16.90;;;11.20;47.10;;;;;;5053796;28;20564;-50
2024/03/09 11:52:35;;;;;;;31.35;17.10;;;11.30;47.00;;;;;;5055751;28;20628;-48
2024/03/09 11:55:04;;;;;;;29.98;17.05;;;11.30;46.70;;;;;;5056643;28;20100;-50
2024/03/09 11:57:30;;;;;;;29.67;17.02;;;11.30;46.20;;;;;;5051989;28;20489;-50
2024/03/09 11:59:56;;;;;;;28.75;17.13;;;11.30;46.30;;;;;;5054537;28;20059;-49
2024/03/09 12:02:23;;;;;;;31.85;17.52;;;11.40;46.50;;;;;;5056973;28;20115;-47
2024/03/09 12:04:48;;;;;;;28.85;16.13;;;11.40;46.00;;;;;;5057610;28;20480;-50
2024/03/09 12:07:15;;;;;;;28.60;17.25;;;11.40;45.60;;;;;;5057159;28;20128;-51
2024/03/09 12:09:44;;;;;;;27.70;16.45;;;11.30;45.50;;;;;;5053101;28;20032;-48
2024/03/09 12:12:13;;;;;;;23.83;13.75;;;11.30;45.60;;;;;;5054848;28;20116;-51
2024/03/09 12:14:43;;;;;;;29.60;16.80;;;11.30;46.20;;;;;;5055424;28;20024;-53
2024/03/09 12:17:10;;;;;;;25.13;15.40;;;11.30;45.60;;;;;;5053066;28;20076;-52
2024/03/09 12:19:38;;;;;;;27.95;15.95;;;11.30;45.90;;;;;;5056886;28;20021;-53
2024/03/09 12:22:04;;;;;;;30.98;16.23;;;11.30;45.80;;;;;;5051040;28;20025;-52
2024/03/09 12:24:30;;;;;;;26.50;14.75;;;11.20;45.20;;;;;;5055516;28;20533;-48
2024/03/09 12:26:56;;;;;;;30.02;16.30;;;11.20;45.50;;;;;;5061286;28;20116;-52
2024/03/09 12:29:23;;;;;;;33.92;19.67;;;11.10;45.30;;;;;;5061138;28;20692;-51
2024/03/09 12:31:48;;;;;;;30.15;16.88;;;11.00;45.40;;;;;;5056239;28;20021;-51
2024/03/09 12:34:15;;;;;;;31.20;18.50;;;10.90;46.00;;;;;;5058482;28;20028;-53